createdAt,value
2023-03-21T00:01:30.008Z,4.60
2023-03-21T00:03:56.871Z,4.05
2023-03-21T00:06:24.022Z,3.67
2023-03-21T00:08:51.020Z,3.92
2023-03-21T00:11:17.718Z,3.70
2023-03-21T00:13:44.456Z,3.72
2023-03-21T00:16:21.159Z,3.65
2023-03-21T00:18:53.968Z,3.53
2023-03-21T00:21:41.010Z,3.92
2023-03-21T00:24:09.431Z,3.42
2023-03-21T00:26:36.361Z,3.30
2023-03-21T00:29:03.094Z,3.88
2023-03-21T00:31:29.865Z,3.60
2023-03-21T00:33:57.109Z,4.00
2023-03-21T00:36:26.112Z,3.78
2023-03-21T00:38:53.377Z,3.35
2023-03-21T00:41:35.165Z,3.65
2023-03-21T00:44:07.004Z,3.58
2023-03-21T00:46:45.189Z,4.00
2023-03-21T00:49:16.108Z,4.20
2023-03-21T00:51:43.814Z,3.45
2023-03-21T00:54:12.674Z,3.83
2023-03-21T00:56:39.394Z,3.53
2023-03-21T00:59:06.415Z,4.18
2023-03-21T01:01:33.273Z,3.88
2023-03-21T01:04:05.698Z,3.80
2023-03-21T01:06:39.453Z,3.30
2023-03-21T01:09:08.112Z,3.55
2023-03-21T01:11:35.354Z,3.63
2023-03-21T01:14:18.712Z,3.63
2023-03-21T01:16:48.242Z,3.45
2023-03-21T01:19:26.288Z,3.20
2023-03-21T01:21:55.441Z,3.20
2023-03-21T01:24:22.630Z,3.35
2023-03-21T01:26:49.521Z,3.40
2023-03-21T01:29:16.261Z,2.90
2023-03-21T01:31:43.045Z,2.78
2023-03-21T01:34:09.771Z,2.67
2023-03-21T01:36:37.043Z,2.55
2023-03-21T01:39:06.186Z,2.47
2023-03-21T01:41:42.875Z,2.43
2023-03-21T01:44:20.076Z,2.42
2023-03-21T01:47:11.403Z,2.85
2023-03-21T01:49:46.456Z,2.38
2023-03-21T01:52:29.756Z,2.03
2023-03-21T01:55:04.639Z,2.85
2023-03-21T01:57:43.792Z,2.70
2023-03-21T02:00:16.947Z,2.57
2023-03-21T02:02:52.565Z,2.72
2023-03-21T02:05:26.611Z,2.50
2023-03-21T02:07:53.339Z,3.65
2023-03-21T02:10:20.640Z,3.90
2023-03-21T02:12:47.790Z,4.00
2023-03-21T02:15:16.083Z,4.22
2023-03-21T02:17:52.369Z,3.00
2023-03-21T02:20:31.100Z,3.20
2023-03-21T02:23:10.113Z,2.70
2023-03-21T02:25:48.968Z,2.60
2023-03-21T02:28:51.434Z,2.65
2023-03-21T02:31:28.364Z,2.57
2023-03-21T02:34:19.924Z,2.60
2023-03-21T02:37:38.558Z,2.40
2023-03-21T02:40:11.344Z,2.40
2023-03-21T02:43:09.322Z,2.50
2023-03-21T02:46:05.723Z,3.40
2023-03-21T02:48:56.313Z,3.53
2023-03-21T02:51:25.416Z,3.00
2023-03-21T02:54:34.871Z,3.13
2023-03-21T02:57:06.264Z,3.50
2023-03-21T02:59:39.424Z,2.97
2023-03-21T03:02:08.671Z,3.17
2023-03-21T03:04:35.663Z,2.90
2023-03-21T03:07:19.551Z,2.87
2023-03-21T03:10:01.591Z,2.97
2023-03-21T03:12:43.039Z,2.60
2023-03-21T03:15:33.557Z,2.60
2023-03-21T03:18:25.084Z,2.90
2023-03-21T03:21:15.696Z,2.37
2023-03-21T03:23:55.699Z,2.50
2023-03-21T03:26:31.729Z,2.53
2023-03-21T03:29:04.375Z,2.37
2023-03-21T03:31:36.389Z,2.67
2023-03-21T03:34:10.521Z,2.40
2023-03-21T03:36:42.010Z,2.37
2023-03-21T03:39:11.837Z,2.67
2023-03-21T03:42:07.494Z,2.60
2023-03-21T03:44:33.432Z,2.13
2023-03-21T03:47:06.418Z,2.40
2023-03-21T03:49:38.240Z,1.77
2023-03-21T03:52:16.328Z,2.37
2023-03-21T03:54:46.391Z,2.47
2023-03-21T03:57:14.032Z,2.97
2023-03-21T03:59:44.248Z,2.97
2023-03-21T04:02:11.595Z,3.00
2023-03-21T04:04:38.981Z,3.00
2023-03-21T04:07:06.510Z,2.73
2023-03-21T04:09:43.740Z,2.93
2023-03-21T04:12:12.962Z,2.90
2023-03-21T04:14:45.765Z,2.70
2023-03-21T04:17:13.977Z,2.67
2023-03-21T04:19:40.717Z,2.70
2023-03-21T04:22:07.496Z,2.80
2023-03-21T04:24:34.358Z,2.63
2023-03-21T04:27:01.250Z,2.87
2023-03-21T04:29:29.852Z,2.83
2023-03-21T04:31:56.850Z,2.33
2023-03-21T04:34:28.266Z,2.50
2023-03-21T04:36:57.696Z,2.40
2023-03-21T04:39:25.129Z,2.50
2023-03-21T04:41:52.243Z,2.87
2023-03-21T04:44:19.193Z,2.60
2023-03-21T04:46:46.036Z,2.57
2023-03-21T04:49:12.853Z,2.50
2023-03-21T04:51:40.071Z,2.57
2023-03-21T04:56:36.143Z,2.57
2023-03-21T04:59:08.459Z,2.47
2023-03-21T05:01:35.193Z,2.43
2023-03-21T05:04:02.905Z,2.47
2023-03-21T05:06:30.658Z,2.53
2023-03-21T05:09:00.163Z,2.23
2023-03-21T05:11:28.436Z,2.40
2023-03-21T05:13:55.156Z,2.33
2023-03-21T05:16:25.610Z,2.53
2023-03-21T05:18:54.775Z,2.47
2023-03-21T05:21:22.911Z,2.20
2023-03-21T05:23:54.226Z,2.93
2023-03-21T05:26:23.149Z,4.80
2023-03-21T05:28:50.072Z,5.67
2023-03-21T05:31:18.646Z,8.37
2023-03-21T05:33:45.648Z,10.70
2023-03-21T05:36:13.191Z,8.30
2023-03-21T05:38:46.012Z,3.50
2023-03-21T05:41:19.286Z,3.03
2023-03-21T05:43:46.399Z,2.67
2023-03-21T05:46:13.322Z,2.40
2023-03-21T05:48:40.066Z,2.60
2023-03-21T05:51:07.063Z,2.20
2023-03-21T05:53:33.826Z,2.40
2023-03-21T05:56:00.653Z,2.50
2023-03-21T05:58:27.392Z,2.80
2023-03-21T06:00:54.617Z,2.47
2023-03-21T06:03:21.334Z,2.87
2023-03-21T06:05:48.076Z,2.80
2023-03-21T06:08:14.818Z,2.70
2023-03-21T06:10:41.578Z,2.60
2023-03-21T06:13:08.551Z,3.03
2023-03-21T06:15:35.518Z,2.83
2023-03-21T06:18:02.515Z,3.07
2023-03-21T06:20:29.307Z,2.83
2023-03-21T06:22:55.999Z,2.90
2023-03-21T06:25:22.707Z,3.10
2023-03-21T06:27:49.423Z,3.80
2023-03-21T06:30:16.813Z,4.23
2023-03-21T06:32:43.793Z,3.67
2023-03-21T06:35:10.647Z,4.13
2023-03-21T06:37:38.349Z,3.70
2023-03-21T06:40:07.838Z,4.10
2023-03-21T06:42:34.673Z,3.90
2023-03-21T06:45:01.595Z,3.73
2023-03-21T06:47:28.406Z,3.77
2023-03-21T06:49:55.180Z,4.10
2023-03-21T06:52:21.945Z,3.70
2023-03-21T06:54:48.666Z,3.80
2023-03-21T06:57:15.441Z,3.67
2023-03-21T06:59:42.132Z,3.70
2023-03-21T07:02:11.276Z,3.60
2023-03-21T07:04:38.102Z,4.03
2023-03-21T07:07:04.932Z,3.60
2023-03-21T07:09:31.636Z,3.70
2023-03-21T07:11:58.452Z,3.40
2023-03-21T07:14:25.592Z,3.13
2023-03-21T07:16:52.532Z,3.33
2023-03-21T07:19:19.414Z,3.70
2023-03-21T07:21:46.340Z,3.50
2023-03-21T07:24:13.140Z,3.43
2023-03-21T07:26:39.941Z,3.60
2023-03-21T07:29:06.846Z,3.20
2023-03-21T07:31:33.652Z,3.53
2023-03-21T07:34:00.679Z,3.47
2023-03-21T07:36:28.172Z,3.50
2023-03-21T07:38:55.033Z,3.30
2023-03-21T07:41:21.825Z,3.70
2023-03-21T07:43:48.609Z,3.00
2023-03-21T07:46:15.437Z,3.13
2023-03-21T07:48:42.282Z,3.00
2023-03-21T07:51:09.651Z,3.03
2023-03-21T07:53:36.400Z,2.53
2023-03-21T07:56:04.139Z,2.70
2023-03-21T07:58:30.852Z,2.70
2023-03-21T08:00:58.902Z,2.83
2023-03-21T08:03:29.235Z,3.00
2023-03-21T08:05:56.037Z,2.73
2023-03-21T08:08:22.876Z,2.85
2023-03-21T08:10:49.556Z,2.53
2023-03-21T08:13:16.304Z,2.75
2023-03-21T08:15:43.328Z,2.30
2023-03-21T08:18:11.427Z,2.70
2023-03-21T08:20:38.756Z,2.50
2023-03-21T08:23:05.523Z,2.63
2023-03-21T08:25:32.767Z,2.45
2023-03-21T08:27:59.650Z,2.80
2023-03-21T08:30:28.974Z,3.00
2023-03-21T08:33:01.297Z,2.63
2023-03-21T08:35:28.574Z,2.97
2023-03-21T08:37:55.348Z,3.05
2023-03-21T08:40:22.142Z,3.00
2023-03-21T08:42:49.005Z,3.08
2023-03-21T08:45:17.481Z,3.45
2023-03-21T08:47:44.696Z,3.00
2023-03-21T08:50:15.566Z,2.83
2023-03-21T08:52:42.568Z,3.28
2023-03-21T08:55:10.052Z,3.53
2023-03-21T08:57:37.000Z,3.28
2023-03-21T09:00:15.631Z,3.05
2023-03-21T09:02:43.649Z,3.63
2023-03-21T09:05:14.663Z,3.00
2023-03-21T09:07:42.144Z,3.28
2023-03-21T09:10:21.187Z,3.92
2023-03-21T09:12:53.778Z,3.40
2023-03-21T09:15:24.386Z,3.50
2023-03-21T09:17:57.015Z,3.75
2023-03-21T09:20:31.097Z,3.53
2023-03-21T09:22:59.436Z,3.35
2023-03-21T09:25:35.178Z,3.58
2023-03-21T09:28:05.316Z,3.47
2023-03-21T09:30:36.595Z,3.80
2023-03-21T09:33:06.528Z,3.85
2023-03-21T09:35:33.449Z,3.97
2023-03-21T09:38:01.360Z,3.40
2023-03-21T09:40:35.031Z,3.53
2023-03-21T09:43:26.372Z,3.70
2023-03-21T09:46:10.317Z,4.20
2023-03-21T09:48:57.235Z,4.63
2023-03-21T09:51:28.488Z,4.50
2023-03-21T09:53:57.632Z,4.50
2023-03-21T09:56:26.233Z,4.13
2023-03-21T09:58:56.830Z,4.22
2023-03-21T10:01:33.164Z,4.28
2023-03-21T10:04:06.418Z,4.32
2023-03-21T10:06:40.378Z,3.88
2023-03-21T10:09:15.119Z,4.10
2023-03-21T10:11:50.303Z,4.35
2023-03-21T10:14:25.585Z,3.97
2023-03-21T10:16:57.160Z,4.28
2023-03-21T10:19:24.614Z,4.35
2023-03-21T10:22:00.615Z,4.72
2023-03-21T10:24:29.426Z,4.38
2023-03-21T10:26:57.085Z,4.22
2023-03-21T10:29:37.020Z,4.15
2023-03-21T10:32:04.192Z,3.95
2023-03-21T10:34:36.553Z,3.88
2023-03-21T10:37:05.457Z,3.75
2023-03-21T10:39:41.516Z,3.65
2023-03-21T10:42:25.104Z,4.30
2023-03-21T10:44:54.162Z,3.50
2023-03-21T10:47:24.606Z,3.30
2023-03-21T10:50:09.026Z,3.35
2023-03-21T10:52:41.882Z,3.22
2023-03-21T10:55:30.192Z,3.45
2023-03-21T10:58:02.425Z,2.97
2023-03-21T11:00:35.659Z,2.78
2023-03-21T11:03:03.657Z,3.00
2023-03-21T11:05:39.365Z,2.72
2023-03-21T11:08:15.553Z,3.40
2023-03-21T11:10:53.993Z,2.80
2023-03-21T11:13:27.530Z,3.20
2023-03-21T11:15:58.741Z,3.40
2023-03-21T11:18:27.528Z,2.67
2023-03-21T11:21:02.396Z,3.05
2023-03-21T11:23:32.105Z,3.38
2023-03-21T11:26:02.874Z,3.17
2023-03-21T11:28:37.493Z,3.88
2023-03-21T11:31:05.905Z,3.33
2023-03-21T11:33:38.513Z,3.88
2023-03-21T11:36:24.232Z,4.07
2023-03-21T11:38:59.058Z,3.72
2023-03-21T11:41:34.174Z,3.80
2023-03-21T11:44:02.765Z,3.33
2023-03-21T11:46:40.788Z,3.72
2023-03-21T11:49:09.543Z,3.58
2023-03-21T11:52:32.428Z,3.15
2023-03-21T11:55:32.502Z,4.05
2023-03-21T11:58:14.628Z,3.78
2023-03-21T12:00:54.800Z,3.53
2023-03-21T12:03:54.832Z,3.60
2023-03-21T12:06:55.050Z,3.55
2023-03-21T12:09:36.412Z,3.45
2023-03-21T12:12:39.202Z,3.33
2023-03-21T12:15:18.726Z,10.95
2023-03-21T12:18:15.129Z,11.77
2023-03-21T12:21:20.977Z,4.80
2023-03-21T12:23:57.047Z,3.15
2023-03-21T12:26:31.327Z,2.92
2023-03-21T12:29:16.410Z,3.30
2023-03-21T12:32:16.203Z,3.25
2023-03-21T12:35:06.793Z,2.58
2023-03-21T12:37:41.339Z,3.47
2023-03-21T12:40:34.091Z,4.25
2023-03-21T12:43:22.911Z,2.75
2023-03-21T12:45:54.534Z,3.03
2023-03-21T12:48:34.454Z,2.38
2023-03-21T12:51:03.906Z,3.08
2023-03-21T12:53:36.820Z,2.60
2023-03-21T12:56:09.384Z,2.58
2023-03-21T12:58:49.896Z,2.85
2023-03-21T13:01:19.837Z,2.95
2023-03-21T13:04:20.269Z,3.03
2023-03-21T13:06:49.408Z,2.90
2023-03-21T13:09:36.784Z,2.92
2023-03-21T13:12:30.603Z,2.25
2023-03-21T13:15:18.359Z,3.05
2023-03-21T13:18:06.343Z,2.53
2023-03-21T13:20:44.996Z,2.53
2023-03-21T13:23:13.566Z,2.38
2023-03-21T13:25:47.690Z,2.30
2023-03-21T13:28:28.936Z,2.47
2023-03-21T13:31:24.831Z,2.55
2023-03-21T13:33:54.196Z,2.10
2023-03-21T13:36:28.161Z,2.33
2023-03-21T13:39:04.378Z,2.03
2023-03-21T13:41:40.725Z,2.13
2023-03-21T13:44:20.937Z,2.05
2023-03-21T13:46:56.310Z,2.10
2023-03-21T13:49:32.886Z,2.08
2023-03-21T13:52:03.326Z,2.35
2023-03-21T13:54:39.137Z,2.47
2023-03-21T13:57:07.334Z,2.33
2023-03-21T13:59:43.096Z,2.35
2023-03-21T14:02:32.673Z,2.47
2023-03-21T14:05:20.628Z,2.30
2023-03-21T14:07:52.874Z,1.88
2023-03-21T14:10:36.970Z,1.98
2023-03-21T14:13:07.388Z,1.88
2023-03-21T14:15:55.011Z,2.45
2023-03-21T14:18:35.155Z,2.08
2023-03-21T14:21:34.196Z,2.38
2023-03-21T14:24:06.553Z,2.00
2023-03-21T14:26:36.293Z,1.90
2023-03-21T14:29:23.040Z,2.30
2023-03-21T14:31:52.698Z,2.10
2023-03-21T14:34:22.078Z,1.90
2023-03-21T14:36:57.523Z,2.20
2023-03-21T14:39:31.224Z,2.10
2023-03-21T14:42:07.346Z,2.30
2023-03-21T14:44:56.466Z,2.28
2023-03-21T14:47:28.640Z,2.30
2023-03-21T14:49:57.092Z,2.15
2023-03-21T14:52:32.426Z,1.80
2023-03-21T14:55:01.576Z,2.25
2023-03-21T14:57:31.514Z,1.95
2023-03-21T15:00:02.148Z,2.08
2023-03-21T15:02:35.489Z,1.98
2023-03-21T15:05:33.156Z,2.20
2023-03-21T15:08:21.959Z,2.22
2023-03-21T15:11:07.171Z,2.20
2023-03-21T15:13:54.824Z,1.80
2023-03-21T15:16:22.421Z,2.10
2023-03-21T15:18:49.861Z,1.77
2023-03-21T15:21:30.378Z,1.67
2023-03-21T15:24:04.087Z,2.10
2023-03-21T15:26:34.278Z,2.20
2023-03-21T15:29:02.395Z,2.13
2023-03-21T15:31:34.217Z,1.63
2023-03-21T15:34:01.846Z,1.85
2023-03-21T15:36:34.347Z,2.03
2023-03-21T15:39:06.482Z,2.05
2023-03-21T15:41:33.835Z,2.50
2023-03-21T15:44:01.959Z,2.15
2023-03-21T15:46:45.246Z,2.10
2023-03-21T15:49:15.073Z,2.15
2023-03-21T15:51:52.448Z,2.17
2023-03-21T15:54:27.938Z,1.90
2023-03-21T15:57:03.302Z,2.00
2023-03-21T15:59:35.099Z,2.17
2023-03-21T16:02:03.194Z,2.05
2023-03-21T16:04:30.406Z,2.15
2023-03-21T16:07:15.277Z,1.98
2023-03-21T16:09:45.384Z,1.98
2023-03-21T16:12:15.686Z,1.73
2023-03-21T16:14:43.216Z,1.80
2023-03-21T16:17:37.794Z,1.70
2023-03-21T16:20:17.506Z,2.28
2023-03-21T16:22:44.276Z,2.47
2023-03-21T16:25:11.201Z,2.45
2023-03-21T16:27:38.064Z,2.88
2023-03-21T16:30:06.728Z,2.85
2023-03-21T16:32:34.216Z,3.33
2023-03-21T16:35:01.291Z,2.90
2023-03-21T16:37:28.717Z,3.22
2023-03-21T16:39:55.645Z,3.00
2023-03-21T16:42:22.389Z,3.15
2023-03-21T16:44:49.286Z,3.38
2023-03-21T16:47:23.011Z,3.65
2023-03-21T16:49:49.988Z,3.75
2023-03-21T16:52:17.201Z,3.80
2023-03-21T16:54:44.208Z,3.95
2023-03-21T16:57:27.801Z,3.85
2023-03-21T16:59:56.003Z,3.80
2023-03-21T17:02:24.742Z,4.68
2023-03-21T17:04:51.561Z,4.25
2023-03-21T17:07:18.790Z,4.68
2023-03-21T17:09:45.508Z,4.53
2023-03-21T17:12:15.150Z,4.10
2023-03-21T17:14:43.069Z,4.28
2023-03-21T17:17:17.295Z,3.78
2023-03-21T17:19:44.144Z,4.13
2023-03-21T17:22:13.299Z,4.63
2023-03-21T17:24:41.138Z,4.82
2023-03-21T17:27:08.509Z,5.88
2023-03-21T17:29:35.371Z,7.03
2023-03-21T17:32:02.112Z,6.13
2023-03-21T17:34:28.798Z,6.07
2023-03-21T17:36:55.864Z,6.80
2023-03-21T17:39:24.968Z,6.68
2023-03-21T17:41:53.286Z,6.45
2023-03-21T17:44:20.933Z,6.13
2023-03-21T17:46:50.307Z,5.15
2023-03-21T17:49:18.230Z,4.90
2023-03-21T17:51:46.948Z,7.55
2023-03-21T17:54:13.758Z,5.15
2023-03-21T17:56:42.010Z,6.53
2023-03-21T17:59:12.605Z,5.90
2023-03-21T18:01:39.406Z,7.30
2023-03-21T18:04:06.361Z,8.75
2023-03-21T18:06:34.439Z,12.18
2023-03-21T18:09:06.924Z,9.20
2023-03-21T18:11:33.907Z,5.32
2023-03-21T18:14:14.300Z,7.50
2023-03-21T18:16:42.474Z,6.28
2023-03-21T18:19:15.386Z,5.30
2023-03-21T18:21:45.239Z,5.70
2023-03-21T18:24:12.890Z,6.55
2023-03-21T18:26:39.833Z,5.93
2023-03-21T18:30:13.189Z,5.72
2023-03-21T18:32:05.526Z,5.85
2023-03-21T18:34:34.152Z,12.15
2023-03-21T18:37:03.860Z,9.98
2023-03-21T18:39:31.641Z,11.13
2023-03-21T18:42:02.462Z,10.27
2023-03-21T18:44:31.255Z,10.07
2023-03-21T18:46:58.837Z,9.85
2023-03-21T18:52:12.803Z,5.32
2023-03-21T18:54:39.741Z,6.80
2023-03-21T18:57:34.964Z,6.78
2023-03-21T18:59:54.147Z,6.60
2023-03-21T19:02:21.310Z,7.03
2023-03-21T19:04:48.288Z,6.07
2023-03-21T19:07:15.570Z,6.80
2023-03-21T19:10:05.254Z,7.03
2023-03-21T19:12:29.464Z,6.72
2023-03-21T19:14:56.679Z,6.32
2023-03-21T19:18:19.340Z,6.18
2023-03-21T19:20:13.980Z,5.20
2023-03-21T19:22:41.388Z,5.63
2023-03-21T19:25:09.309Z,4.78
2023-03-21T19:27:37.475Z,4.25
2023-03-21T19:30:14.319Z,4.13
2023-03-21T19:32:42.356Z,4.63
2023-03-21T19:35:09.611Z,4.43
2023-03-21T19:37:36.763Z,6.50
2023-03-21T19:40:05.821Z,5.32
2023-03-21T19:42:33.133Z,4.90
2023-03-21T19:44:59.981Z,5.03
2023-03-21T19:47:27.078Z,4.38
2023-03-21T19:50:42.115Z,5.05
2023-03-21T19:52:42.133Z,5.50
2023-03-21T19:55:10.753Z,5.00
2023-03-21T19:57:37.494Z,4.82
2023-03-21T20:00:04.838Z,6.10
2023-03-21T20:02:36.618Z,7.43
2023-03-21T20:05:05.229Z,7.70
2023-03-21T20:07:32.958Z,7.90
2023-03-21T20:09:59.997Z,8.25
2023-03-21T20:12:27.518Z,7.60
2023-03-21T20:15:07.240Z,7.82
2023-03-21T20:17:42.652Z,6.95
2023-03-21T20:20:18.523Z,7.40
2023-03-21T20:23:07.993Z,7.72
2023-03-21T20:25:35.778Z,8.82
2023-03-21T20:28:25.502Z,9.60
2023-03-21T20:30:53.401Z,8.88
2023-03-21T20:33:20.228Z,8.68
2023-03-21T20:36:32.183Z,8.25
2023-03-21T20:38:34.342Z,9.27
2023-03-21T20:41:02.898Z,8.40
2023-03-21T20:46:17.534Z,10.55
2023-03-21T20:48:48.706Z,13.50
2023-03-21T20:52:26.898Z,13.38
2023-03-21T20:54:02.262Z,15.63
2023-03-21T20:56:30.455Z,12.00
2023-03-21T20:59:12.138Z,12.43
2023-03-21T21:01:43.059Z,9.40
2023-03-21T21:04:10.318Z,9.60
2023-03-21T21:06:37.152Z,10.23
2023-03-21T21:09:04.403Z,9.80
2023-03-21T21:14:17.790Z,9.07
2023-03-21T21:16:44.971Z,8.48
2023-03-21T21:19:11.773Z,8.55
2023-03-21T21:21:38.692Z,9.55
2023-03-21T21:24:07.699Z,10.30
2023-03-21T21:26:35.294Z,9.95
2023-03-21T21:29:02.146Z,8.38
2023-03-21T21:31:28.866Z,8.88
2023-03-21T21:33:55.713Z,8.57
2023-03-21T21:36:22.720Z,7.95
2023-03-21T21:38:49.593Z,7.53
2023-03-21T21:41:19.890Z,8.25
2023-03-21T21:43:47.597Z,7.63
2023-03-21T21:46:15.198Z,7.32
2023-03-21T21:48:43.300Z,7.78
2023-03-21T21:51:10.350Z,8.10
2023-03-21T21:53:38.879Z,8.13
2023-03-21T21:56:06.362Z,7.95
2023-03-21T21:58:33.838Z,8.02
2023-03-21T22:01:04.511Z,9.20
2023-03-21T22:03:36.594Z,8.70
2023-03-21T22:06:04.534Z,8.35
2023-03-21T22:08:31.490Z,8.13
2023-03-21T22:11:00.672Z,7.70
2023-03-21T22:13:27.803Z,7.70
2023-03-21T22:15:55.028Z,8.18
2023-03-21T22:18:22.257Z,8.30
2023-03-21T22:20:49.200Z,8.68
2023-03-21T22:23:16.152Z,9.10
2023-03-21T22:25:48.424Z,8.45
2023-03-21T22:28:17.765Z,8.57
2023-03-21T22:30:44.561Z,8.15
2023-03-21T22:33:11.233Z,7.93
2023-03-21T22:35:38.118Z,8.13
2023-03-21T22:38:04.943Z,7.22
2023-03-21T22:40:31.771Z,7.07
2023-03-21T22:42:58.532Z,6.65
2023-03-21T22:45:25.673Z,7.35
2023-03-21T22:47:52.383Z,7.20
2023-03-21T22:50:19.130Z,7.13
2023-03-21T22:52:46.006Z,7.05
2023-03-21T22:55:14.294Z,6.70
2023-03-21T22:57:41.004Z,6.35
2023-03-21T23:00:13.561Z,6.40
2023-03-21T23:02:41.515Z,6.43
2023-03-21T23:05:09.762Z,5.90
2023-03-21T23:07:36.557Z,5.30
2023-03-21T23:10:05.136Z,4.82
2023-03-21T23:12:32.728Z,4.90
2023-03-21T23:15:00.824Z,4.95
2023-03-21T23:17:28.758Z,4.90
2023-03-21T23:19:55.583Z,5.15
2023-03-21T23:22:22.320Z,4.78
2023-03-21T23:24:49.103Z,4.85
2023-03-21T23:27:18.165Z,4.95
2023-03-21T23:29:45.405Z,4.93
2023-03-21T23:32:12.172Z,5.10
2023-03-21T23:34:38.967Z,5.00
2023-03-21T23:37:06.975Z,4.90
2023-03-21T23:39:34.435Z,4.75
2023-03-21T23:42:01.432Z,4.18
2023-03-21T23:44:28.180Z,4.60
2023-03-21T23:46:55.554Z,4.68
2023-03-21T23:49:22.225Z,5.00
2023-03-21T23:51:50.057Z,5.07
2023-03-21T23:54:16.812Z,5.22
2023-03-21T23:56:43.934Z,5.43
2023-03-21T23:59:10.637Z,5.63
